Nordic Harrier — V7VH2 — position and weather

sailwx.info

Track history (hours):
 
Tides and Currents Weather Stations Pressure Air Temp Water Temp Dewpoint Dewpoint Depression Visibility Wind Speed Wind Dir Waves Ship Positions

Nordic Harrier

Last reported at 2016-Jul-01 03:10 UTC. Time now 2016-Jul-01 04:33 UTC.
Position N 01°15' E 103°56'.

Length 274 m; draft 9 m.

Type: Ship. MMSI: 538004121.

Date/timePositionNaut miles runAvg speedWind from/ knotsBaromVisibWave heightAir tempDewpointWater temp
2016-Jul-01 03:10N 01°15' E 103°56'0 0.0
2016-Jul-01 02:32N 01°15' E 103°56'0 0.1
2016-Jul-01 01:34N 01°15' E 103°56'0 0.0
2016-Jul-01 00:34N 01°15' E 103°56'0 0.0
2016-Jun-30 23:33N 01°15' E 103°56'0 0.1
2016-Jun-30 22:33N 01°15' E 103°56'1 1.2
2016-Jun-30 21:34N 01°15' E 103°57'3 2.8
2016-Jun-30 20:33N 01°13' E 103°55'9 9.1
2016-Jun-30 19:33N 01°09' E 103°47'8810.7
2016-Jun-30 11:17N 01°47' E 102°28'912.2
2016-Jun-30 10:33N 01°51' E 102°19'1612.4
2016-Jun-30 09:17N 02°01' E 102°07'912.8
2016-Jun-30 08:33N 02°07' E 102°00'10 0.3
2016-Jun-28 16:18N 02°17' E 101°57'  
2016-Jun-26 08:11N 02°16' E 101°58'30 1.0
2016-Jun-25 01:29N 01°55' E 102°20'9 9.9
2016-Jun-25 00:33N 01°51' E 102°28'1110.7
2016-Jun-24 23:30N 01°47' E 102°38'7510.3
2016-Jun-24 16:12N 01°09' E 103°43'710.3
2016-Jun-24 15:32N 01°11' E 103°50'1111.3
2016-Jun-24 14:33N 01°16' E 103°60'4 1.9
2016-Jun-24 12:13N 01°18' E 104°04'0 0.0
2016-Jun-24 04:26N 01°18' E 104°04'0 0.0
2016-Jun-24 03:33N 01°18' E 104°04'0 0.2
2016-Jun-24 02:30N 01°18' E 104°04'0 0.1
2016-Jun-24 01:33N 01°18' E 104°04'0 0.0
2016-Jun-24 00:32N 01°18' E 104°04'0 0.1
2016-Jun-23 23:26N 01°18' E 104°04'  
Track history (hours):
 
Tides and Currents Weather Stations Pressure Air Temp Water Temp Dewpoint Dewpoint Depression Visibility Wind Speed Wind Dir Waves Ship Positions

Nordic Harrier

Last reported at 2016-Jul-01 03:10 UTC. Time now 2016-Jul-01 04:33 UTC.
Position N 01°15' E 103°56'.

Length 274 m; draft 9 m.

Type: Ship. MMSI: 538004121.

Date/timePositionNaut miles runAvg speedWind from/ knotsBaromVisibWave heightAir tempDewpointWater temp
2016-Jul-01 03:10N 01°15' E 103°56'0 0.0
2016-Jul-01 02:32N 01°15' E 103°56'0 0.1
2016-Jul-01 01:34N 01°15' E 103°56'0 0.0
2016-Jul-01 00:34N 01°15' E 103°56'0 0.0
2016-Jun-30 23:33N 01°15' E 103°56'0 0.1
2016-Jun-30 22:33N 01°15' E 103°56'1 1.2
2016-Jun-30 21:34N 01°15' E 103°57'3 2.8
2016-Jun-30 20:33N 01°13' E 103°55'9 9.1
2016-Jun-30 19:33N 01°09' E 103°47'8810.7
2016-Jun-30 11:17N 01°47' E 102°28'912.2
2016-Jun-30 10:33N 01°51' E 102°19'1612.4
2016-Jun-30 09:17N 02°01' E 102°07'912.8
2016-Jun-30 08:33N 02°07' E 102°00'10 0.3
2016-Jun-28 16:18N 02°17' E 101°57'  
2016-Jun-26 08:11N 02°16' E 101°58'30 1.0
2016-Jun-25 01:29N 01°55' E 102°20'9 9.9
2016-Jun-25 00:33N 01°51' E 102°28'1110.7
2016-Jun-24 23:30N 01°47' E 102°38'7510.3
2016-Jun-24 16:12N 01°09' E 103°43'710.3
2016-Jun-24 15:32N 01°11' E 103°50'1111.3
2016-Jun-24 14:33N 01°16' E 103°60'4 1.9
2016-Jun-24 12:13N 01°18' E 104°04'0 0.0
2016-Jun-24 04:26N 01°18' E 104°04'0 0.0
2016-Jun-24 03:33N 01°18' E 104°04'0 0.2
2016-Jun-24 02:30N 01°18' E 104°04'0 0.1
2016-Jun-24 01:33N 01°18' E 104°04'0 0.0
2016-Jun-24 00:32N 01°18' E 104°04'0 0.1
2016-Jun-23 23:26N 01°18' E 104°04'  

Dump ship's entire track history